Time;durP1;ratioP1;P1;durP2;ratioP2;P2;SDS_P1;SDS_P2;PMS_P1;PMS_P2;Temp;Humidity;BMP_temperature;BMP_pressure;BME280_temperature;BME280_humidity;BME280_pressure;Samples;Min_cycle;Max_cycle;Signal;HPM_P1;HPM_P2
2021/11/07 00:02:36;;;;;;;18.85;9.50;;;;;;;0.08;100.00;96574.22;5051829;28;24450;-72
2021/11/07 00:05:04;;;;;;;46.53;9.15;;;;;;;0.36;100.00;96559.50;5050937;28;25010;-72
2021/11/07 00:07:41;;;;;;;42.80;8.13;;;;;;;0.19;100.00;96552.88;5051312;28;24453;-73
2021/11/07 00:10:13;;;;;;;39.10;8.40;;;;;;;0.34;100.00;96561.25;5050906;28;24478;-72
2021/11/07 00:12:43;;;;;;;112.28;9.00;;;;;;;0.11;100.00;96552.13;5051210;28;24510;-73
2021/11/07 00:15:11;;;;;;;110.47;11.57;;;;;;;0.06;100.00;96560.66;5051274;28;24477;-73
2021/11/07 00:17:38;;;;;;;95.18;9.68;;;;;;;-0.10;100.00;96570.13;5051164;28;24434;-73
2021/11/07 00:20:09;;;;;;;16.35;12.15;;;;;;;0.05;100.00;96562.34;5051022;28;24978;-73
2021/11/07 00:22:46;;;;;;;12.80;8.57;;;;;;;0.27;100.00;96572.34;5051114;28;24443;-73
2021/11/07 00:25:19;;;;;;;17.73;6.70;;;;;;;0.40;100.00;96573.91;5050631;28;24419;-72
2021/11/07 00:27:49;;;;;;;50.83;7.73;;;;;;;0.24;100.00;96589.34;5051055;28;24848;-73
2021/11/07 00:30:19;;;;;;;114.78;10.85;;;;;;;-0.10;100.00;96598.13;5050996;28;24523;-73
2021/11/07 00:32:53;;;;;;;100.05;7.97;;;;;;;-0.27;100.00;96601.63;5050237;28;24437;-73
2021/11/07 00:35:47;;;;;;;91.72;8.18;;;;;;;-0.40;100.00;96589.88;5050031;28;24442;-72
2021/11/07 00:38:17;;;;;;;43.97;7.10;;;;;;;-0.15;100.00;96585.44;5047204;28;24789;-73
2021/11/07 00:40:48;;;;;;;21.10;7.00;;;;;;;-0.09;100.00;96584.53;5050788;28;24438;-73
2021/11/07 00:43:22;;;;;;;9.70;8.35;;;;;;;0.02;100.00;96571.72;5050675;28;25000;-72
2021/11/07 00:46:01;;;;;;;8.15;7.35;;;;;;;0.23;100.00;96558.81;5050286;28;24427;-72
2021/11/07 00:48:30;;;;;;;9.93;6.88;;;;;;;0.35;100.00;96570.56;5050798;28;24885;-72
2021/11/07 00:51:03;;;;;;;104.20;8.45;;;;;;;0.12;100.00;96583.53;5050760;28;24493;-72
2021/11/07 00:53:54;;;;;;;49.03;6.55;;;;;;;-0.06;100.00;96587.06;5050617;28;24418;-72
2021/11/07 00:56:33;;;;;;;52.40;7.90;;;;;;;0.01;100.00;96575.97;5050086;28;24887;-72
2021/11/07 00:59:32;;;;;;;9.65;6.43;;;;;;;-0.04;100.00;96582.78;5050760;28;24956;-72
2021/11/07 01:02:15;;;;;;;10.02;8.13;;;;;;;0.16;100.00;96569.91;5050548;28;24423;-71
2021/11/07 01:04:45;;;;;;;10.87;7.47;;;;;;;0.29;100.00;96562.97;5050082;28;24836;-72
2021/11/07 01:07:12;;;;;;;19.98;6.55;;;;;;;0.35;100.00;96551.03;5050369;28;24427;-72
2021/11/07 01:09:39;;;;;;;16.65;6.03;;;;;;;0.34;100.00;96538.31;5050621;28;24426;-71
2021/11/07 01:12:06;;;;;;;8.68;6.65;;;;;;;0.45;100.00;96546.69;5050416;28;24838;-73
2021/11/07 01:14:34;;;;;;;52.30;6.97;;;;;;;-0.03;100.00;96531.88;5050071;28;24424;-75
2021/11/07 01:17:01;;;;;;;60.45;7.20;;;;;;;-0.25;100.00;96525.28;5050074;28;24637;-71
2021/11/07 01:19:27;;;;;;;13.77;6.68;;;;;;;-0.15;100.00;96519.25;5050092;28;24427;-73
2021/11/07 01:21:56;;;;;;;27.43;6.87;;;;;;;-0.20;100.00;96512.50;5051044;28;24455;-72
2021/11/07 01:24:28;;;;;;;15.15;6.25;;;;;;;-0.16;100.00;96511.63;5054369;28;24804;-72
2021/11/07 01:27:06;;;;;;;10.00;7.60;;;;;;;-0.06;100.00;96496.25;5054382;28;24797;-72
2021/11/07 01:29:39;;;;;;;7.85;7.05;;;;;;;0.11;100.00;96487.56;5054352;28;24430;-73
2021/11/07 01:32:07;;;;;;;7.80;6.93;;;;;;;0.02;100.00;96501.25;5054260;28;24493;-72
2021/11/07 01:34:45;;;;;;;9.48;6.75;;;;;;;-0.05;100.00;96505.56;5054125;28;24462;-72
2021/11/07 01:37:14;;;;;;;12.75;7.45;;;;;;;-0.20;100.00;96504.88;5054309;28;24443;-72
2021/11/07 01:39:46;;;;;;;8.77;7.20;;;;;;;-0.36;100.00;96510.09;5054036;28;24578;-72
2021/11/07 01:42:17;;;;;;;8.80;6.95;;;;;;;-0.50;100.00;96511.91;5053992;28;24422;-72
2021/11/07 01:44:51;;;;;;;7.72;6.75;;;;;;;-0.49;100.00;96500.84;5053805;28;24439;-72
2021/11/07 01:47:18;;;;;;;6.43;5.82;;;;;;;-0.26;100.00;96496.44;5054122;28;24518;-73
2021/11/07 01:49:45;;;;;;;7.03;5.82;;;;;;;-0.09;100.00;96491.16;5053983;28;24423;-72
2021/11/07 01:52:13;;;;;;;10.73;6.73;;;;;;;-0.11;100.00;96504.78;5053995;28;24531;-73
2021/11/07 01:54:50;;;;;;;6.68;5.97;;;;;;;-0.34;100.00;96497.34;5053545;28;24423;-72
2021/11/07 01:57:18;;;;;;;6.70;6.00;;;;;;;-0.37;100.00;96485.50;5058736;23;24475;-76
2021/11/07 01:59:48;;;;;;;7.20;6.50;;;;;;;-0.53;100.00;96474.59;5034177;28;24438;-76
2021/11/07 02:02:15;;;;;;;6.53;5.90;;;;;;;-0.44;100.00;96465.22;5034011;28;24438;-76
2021/11/07 02:04:43;;;;;;;7.18;6.30;;;;;;;-0.42;100.00;96458.41;5033406;28;24455;-76
2021/11/07 02:07:10;;;;;;;6.43;5.72;;;;;;;-0.34;100.00;96452.38;5042526;28;24431;-76
2021/11/07 02:09:38;;;;;;;6.70;5.95;;;;;;;-0.35;100.00;96457.47;5053413;28;24955;-76
2021/11/07 02:12:05;;;;;;;6.40;5.40;;;;;;;-0.16;100.00;96460.69;5053578;28;24448;-76
2021/11/07 02:14:32;;;;;;;6.88;5.90;;;;;;;-0.01;100.00;96466.47;5053400;28;24422;-76
2021/11/07 02:17:01;;;;;;;6.10;5.50;;;;;;;0.14;100.00;96464.63;5053423;28;24513;-76
2021/11/07 02:19:28;;;;;;;6.78;5.70;;;;;;;0.18;100.00;96463.72;5053509;28;24422;-76
2021/11/07 02:21:56;;;;;;;5.75;5.15;;;;;;;0.31;100.00;96456.81;5053325;28;24538;-76
2021/11/07 02:24:24;;;;;;;6.50;5.85;;;;;;;0.30;100.00;96460.19;5053300;28;24546;-76
2021/11/07 02:26:53;;;;;;;6.32;5.03;;;;;;;0.43;100.00;96449.84;5053112;28;24953;-76
2021/11/07 02:29:21;;;;;;;7.43;6.18;;;;;;;0.19;100.00;96443.34;5053242;28;24438;-76
2021/11/07 02:31:48;;;;;;;6.90;6.20;;;;;;;0.07;100.00;96435.00;5053333;28;24481;-76
2021/11/07 02:34:14;;;;;;;8.90;5.67;;;;;;;-0.12;100.00;96432.63;5052709;28;24478;-76
2021/11/07 02:36:42;;;;;;;6.60;5.90;;;;;;;-0.15;100.00;96434.38;5052653;28;24435;-76
2021/11/07 02:39:10;;;;;;;6.60;5.55;;;;;;;-0.10;100.00;96432.63;5053193;28;24526;-76
2021/11/07 02:44:30;;;;;;;7.03;5.32;;;;;;;-0.17;100.00;96451.38;5052774;28;24542;-76
2021/11/07 02:46:56;;;;;;;5.97;5.38;;;;;;;-0.14;100.00;96453.91;5053511;28;24426;-77
2021/11/07 02:49:24;;;;;;;5.70;4.97;;;;;;;-0.01;100.00;96445.25;5053456;28;24449;-76
2021/11/07 02:51:52;;;;;;;5.60;5.10;;;;;;;0.13;100.00;96448.50;5057904;28;24419;-76
2021/11/07 02:54:21;;;;;;;5.70;4.80;;;;;;;0.27;100.00;96440.72;5060040;28;24426;-76
2021/11/07 02:56:50;;;;;;;7.05;5.10;;;;;;;0.38;100.00;96438.88;5059141;28;24435;-76
2021/11/07 02:59:20;;;;;;;6.00;5.10;;;;;;;0.53;100.00;96429.34;5052859;28;24459;-76
2021/11/07 03:01:47;;;;;;;6.60;5.13;;;;;;;0.50;100.00;96432.78;5052948;28;24430;-77
2021/11/07 03:04:14;;;;;;;7.68;5.78;;;;;;;0.44;100.00;96433.69;5052560;28;25082;-77
2021/11/07 03:06:42;;;;;;;5.55;5.05;;;;;;;0.15;100.00;96439.16;5052352;28;24975;-76
2021/11/07 03:09:13;;;;;;;6.38;5.78;;;;;;;-0.10;100.00;96456.41;5052555;28;24895;-76
2021/11/07 03:11:42;;;;;;;6.30;5.60;;;;;;;-0.23;100.00;96467.53;5052847;28;24435;-77
2021/11/07 03:14:11;;;;;;;8.50;5.90;;;;;;;-0.19;100.00;96476.84;5052280;28;24808;-76
2021/11/07 03:16:38;;;;;;;6.40;5.68;;;;;;;-0.22;100.00;96476.88;5052273;28;24422;-76
2021/11/07 03:19:04;;;;;;;6.28;5.50;;;;;;;-0.16;100.00;96473.44;5052372;28;24430;-76
2021/11/07 03:21:31;;;;;;;5.30;4.80;;;;;;;0.04;100.00;96469.00;5052458;28;24434;-76
2021/11/07 03:23:58;;;;;;;5.63;5.13;;;;;;;0.15;100.00;96457.00;5051973;28;24439;-76
2021/11/07 03:26:26;;;;;;;5.63;4.95;;;;;;;-0.07;100.00;96465.72;5051798;28;24442;-76
2021/11/07 03:28:58;;;;;;;6.03;5.43;;;;;;;-0.16;100.00;96468.34;5052348;28;24492;-75
2021/11/07 03:31:31;;;;;;;6.82;5.10;;;;;;;-0.17;100.00;96467.50;5052352;28;24531;-76
2021/11/07 03:34:00;;;;;;;6.10;4.80;;;;;;;0.02;100.00;96465.59;5052193;28;25055;-76
2021/11/07 03:36:32;;;;;;;6.78;5.03;;;;;;;0.16;100.00;96460.38;5051937;28;24535;-76
2021/11/07 03:38:59;;;;;;;5.15;4.70;;;;;;;0.27;100.00;96455.16;5052291;28;24423;-76
2021/11/07 03:41:26;;;;;;;4.80;4.40;;;;;;;0.30;100.00;96450.00;5052049;28;25002;-76
2021/11/07 03:43:52;;;;;;;5.00;4.50;;;;;;;0.35;100.00;96454.19;5051895;28;24449;-76
2021/11/07 03:46:20;;;;;;;5.40;4.53;;;;;;;0.38;100.00;96464.38;5050680;28;24423;-76
2021/11/07 03:48:47;;;;;;;5.50;5.00;;;;;;;0.46;100.00;96460.00;5051824;28;24416;-76
2021/11/07 03:51:15;;;;;;;5.47;4.40;;;;;;;0.46;100.00;96447.28;5051594;28;24474;-76
2021/11/07 03:53:43;;;;;;;5.78;5.28;;;;;;;0.47;100.00;96435.38;5051432;28;24970;-76
2021/11/07 03:56:09;;;;;;;7.67;6.53;;;;;;;0.54;100.00;96428.50;5051486;28;24516;-76
2021/11/07 03:58:36;;;;;;;7.00;5.72;;;;;;;0.15;100.00;96430.66;5051491;28;24434;-76
2021/11/07 04:01:03;;;;;;;6.90;5.43;;;;;;;-0.06;100.00;96431.75;5051583;28;24740;-76
2021/11/07 04:03:33;;;;;;;6.13;4.93;;;;;;;-0.04;100.00;96427.47;5053729;28;24427;-76
2021/11/07 04:06:02;;;;;;;5.70;5.20;;;;;;;0.18;100.00;96415.31;5057799;28;24531;-76
2021/11/07 04:08:29;;;;;;;5.32;4.65;;;;;;;0.18;100.00;96400.88;5052261;28;24550;-76
2021/11/07 04:10:55;;;;;;;6.68;4.82;;;;;;;0.08;100.00;96409.53;5051590;28;24415;-76
2021/11/07 04:13:22;;;;;;;5.80;5.15;;;;;;;-0.08;100.00;96413.91;5051213;28;24983;-76
2021/11/07 04:15:48;;;;;;;5.60;5.07;;;;;;;0.10;100.00;96412.03;5050833;28;24952;-76
2021/11/07 04:18:15;;;;;;;7.53;6.82;;;;;;;-0.22;100.00;96431.06;5051239;28;24430;-76
2021/11/07 04:20:43;;;;;;;6.85;6.07;;;;;;;-0.11;100.00;96444.53;5051154;28;24435;-76
2021/11/07 04:23:13;;;;;;;6.22;5.63;;;;;;;-0.30;100.00;96443.00;5053295;28;24880;-76
2021/11/07 04:25:44;;;;;;;6.10;5.57;;;;;;;-0.45;100.00;96445.69;5057752;28;24473;-76
2021/11/07 04:28:11;;;;;;;6.05;5.43;;;;;;;-0.49;100.00;96432.16;5054181;28;24852;-77
2021/11/07 04:30:37;;;;;;;5.85;5.35;;;;;;;-0.50;100.00;96426.22;5051004;28;24431;-76
2021/11/07 04:33:04;;;;;;;7.15;6.45;;;;;;;-0.46;100.00;96419.41;5051020;28;24473;-76
2021/11/07 04:35:32;;;;;;;6.10;5.40;;;;;;;-0.44;100.00;96420.25;5050083;28;21310;-76
2021/11/07 04:38:00;;;;;;;6.20;5.60;;;;;;;-0.39;100.00;96423.59;5056731;28;24434;-76
2021/11/07 04:40:27;;;;;;;6.05;5.45;;;;;;;-0.39;100.00;96410.84;5051149;28;24481;-76
2021/11/07 04:42:55;;;;;;;7.15;5.95;;;;;;;-0.37;100.00;96409.16;5050675;28;24979;-76
2021/11/07 04:45:22;;;;;;;7.43;6.30;;;;;;;-0.32;100.00;96401.47;5053645;28;24447;-76
2021/11/07 04:47:49;;;;;;;6.55;5.95;;;;;;;-0.32;100.00;96397.22;5052046;28;24516;-76
2021/11/07 04:50:21;;;;;;;6.82;5.85;;;;;;;-0.15;100.00;96384.31;5056148;28;24424;-76
2021/11/07 04:52:48;;;;;;;7.63;5.88;;;;;;;-0.05;100.00;96388.44;5052530;28;24434;-76
2021/11/07 04:55:17;;;;;;;6.55;5.80;;;;;;;0.04;100.00;96389.19;5050312;28;24415;-76
2021/11/07 04:57:44;;;;;;;8.25;5.75;;;;;;;-0.09;100.00;96389.31;5050259;28;24423;-76
2021/11/07 05:00:12;;;;;;;6.60;5.93;;;;;;;-0.17;100.00;96380.09;5050471;28;24415;-76
2021/11/07 05:02:39;;;;;;;6.30;5.70;;;;;;;-0.17;100.00;96385.19;5050530;28;24426;-77
2021/11/07 05:05:07;;;;;;;6.70;5.70;;;;;;;-0.17;100.00;96388.56;5050309;28;24439;-76
2021/11/07 05:07:35;;;;;;;5.63;5.10;;;;;;;-0.04;100.00;96379.09;5053970;28;24526;-76
2021/11/07 05:10:02;;;;;;;8.55;5.65;;;;;;;-0.19;100.00;96379.25;5058027;28;24430;-76
2021/11/07 05:12:31;;;;;;;6.45;5.72;;;;;;;-0.15;100.00;96381.78;5050470;28;24435;-76
2021/11/07 05:14:59;;;;;;;6.32;5.72;;;;;;;-0.10;100.00;96369.81;5053671;28;24427;-76
2021/11/07 05:17:26;;;;;;;7.55;5.45;;;;;;;-0.24;100.00;96369.13;5055939;28;24493;-76
2021/11/07 05:19:53;;;;;;;8.23;5.47;;;;;;;-0.38;100.00;96361.63;5050941;28;24431;-76
2021/11/07 05:22:23;;;;;;;7.38;6.00;;;;;;;-0.43;100.00;96367.66;5053941;28;24435;-76
2021/11/07 05:24:54;;;;;;;5.80;5.20;;;;;;;-0.27;100.00;96356.44;5056495;28;25031;-76
2021/11/07 05:27:21;;;;;;;6.93;5.10;;;;;;;-0.20;100.00;96358.06;5056189;28;24598;-76
2021/11/07 05:30:31;;;;;;;6.78;5.75;;;;;;;-0.07;100.00;96346.88;5052477;28;24423;-76
2021/11/07 05:32:59;;;;;;;7.15;5.45;;;;;;;-0.24;100.00;96356.41;5051580;28;24426;-76
2021/11/07 05:35:26;;;;;;;8.38;6.07;;;;;;;-0.36;100.00;96361.63;5050012;28;24520;-76
2021/11/07 05:37:53;;;;;;;6.45;5.72;;;;;;;-0.40;100.00;96354.91;5050435;28;24434;-76
2021/11/07 05:40:20;;;;;;;6.20;5.60;;;;;;;-0.32;100.00;96359.03;5050275;28;24420;-76
2021/11/07 05:42:47;;;;;;;6.45;5.85;;;;;;;-0.27;100.00;96356.44;5050313;28;24421;-77
2021/11/07 05:45:14;;;;;;;6.80;6.20;;;;;;;-0.26;100.00;96350.47;5049932;28;24450;-77
2021/11/07 05:47:42;;;;;;;6.28;5.68;;;;;;;-0.27;100.00;96338.63;5050590;28;24558;-77
2021/11/07 05:50:10;;;;;;;6.53;5.82;;;;;;;-0.26;100.00;96328.44;5050040;28;24526;-76
2021/11/07 05:52:36;;;;;;;7.57;5.88;;;;;;;-0.25;100.00;96337.75;5049884;28;24422;-77
2021/11/07 05:55:04;;;;;;;6.80;5.63;;;;;;;-0.37;100.00;96316.66;5049836;28;24454;-77
2021/11/07 05:57:31;;;;;;;6.90;6.30;;;;;;;-0.28;100.00;96312.31;5050090;28;24454;-76
2021/11/07 05:59:57;;;;;;;10.82;6.55;;;;;;;-0.16;100.00;96301.16;5049906;28;24997;-76
2021/11/07 06:02:24;;;;;;;10.18;7.78;;;;;;;-0.06;100.00;96296.78;5049931;28;24423;-76
2021/11/07 06:04:50;;;;;;;10.70;7.22;;;;;;;-0.07;100.00;96302.75;5049324;28;24443;-76
2021/11/07 06:07:20;;;;;;;15.05;11.43;;;;;;;-0.07;100.00;96297.66;5050632;28;24431;-76
2021/11/07 06:09:46;;;;;;;23.10;17.85;;;;;;;-0.06;100.00;96291.69;5059175;28;24990;-76
2021/11/07 06:12:13;;;;;;;35.92;21.90;;;;;;;-0.11;100.00;96279.03;5053988;28;24450;-76
2021/11/07 06:14:40;;;;;;;15.75;10.90;;;;;;;-0.22;100.00;96270.69;5053355;28;25015;-76
2021/11/07 06:17:06;;;;;;;26.42;16.77;;;;;;;-0.30;100.00;96280.09;5053462;28;24439;-76
2021/11/07 06:19:33;;;;;;;31.83;18.08;;;;;;;-0.36;100.00;96282.75;5053316;28;24769;-76
2021/11/07 06:22:00;;;;;;;36.13;18.05;;;;;;;-0.30;100.00;96282.66;5053652;28;24792;-76
2021/11/07 06:24:28;;;;;;;55.23;32.37;;;;;;;-0.27;100.00;96275.81;5054554;28;24479;-76
2021/11/07 06:26:58;;;;;;;22.70;15.10;;;;;;;-0.14;100.00;96271.44;5055850;28;24430;-76
2021/11/07 06:29:26;;;;;;;8.57;7.72;;;;;;;-0.14;100.00;96255.31;5057709;28;24960;-76
2021/11/07 06:31:54;;;;;;;9.85;8.27;;;;;;;-0.12;100.00;96254.41;5053243;28;24451;-76
2021/11/07 06:34:23;;;;;;;9.07;8.10;;;;;;;-0.10;100.00;96262.88;5052901;28;24451;-76
2021/11/07 06:36:50;;;;;;;10.48;7.72;;;;;;;0.02;100.00;96251.69;5052944;28;24793;-76
2021/11/07 06:39:18;;;;;;;8.35;7.55;;;;;;;-0.01;100.00;96244.94;5053124;28;24434;-76
2021/11/07 06:41:46;;;;;;;11.80;8.63;;;;;;;-0.02;100.00;96257.69;5053342;28;24423;-76
2021/11/07 06:44:13;;;;;;;9.38;8.30;;;;;;;0.02;100.00;96255.94;5053152;28;24961;-76
2021/11/07 06:46:39;;;;;;;8.50;7.70;;;;;;;0.11;100.00;96264.31;5052820;28;24789;-76
2021/11/07 06:49:10;;;;;;;11.63;8.13;;;;;;;0.10;100.00;96272.78;5053129;28;24454;-76
2021/11/07 06:51:38;;;;;;;8.63;7.72;;;;;;;0.33;100.00;96272.47;5056536;28;24431;-76
2021/11/07 06:54:04;;;;;;;14.48;8.73;;;;;;;0.52;100.00;96270.50;5052915;28;24531;-76
2021/11/07 06:56:31;;;;;;;11.18;9.10;;;;;;;0.45;100.00;96272.31;5053735;28;24411;-76
2021/11/07 06:58:59;;;;;;;9.23;8.23;;;;;;;0.59;100.00;96289.91;5054094;28;24952;-76
2021/11/07 07:01:25;;;;;;;9.25;8.35;;;;;;;0.74;100.00;96278.63;5052881;28;24430;-76
2021/11/07 07:03:52;;;;;;;9.30;8.15;;;;;;;0.82;100.00;96281.91;5052685;28;24522;-77
2021/11/07 07:06:27;;;;;;;11.70;8.88;;;;;;;0.88;100.00;96274.16;5059665;28;24454;-78
2021/11/07 07:08:59;;;;;;;21.90;8.52;;;;;;;1.06;100.00;96251.75;5059377;28;24437;-77
2021/11/07 07:11:30;;;;;;;9.25;8.25;;;;;;;1.28;100.00;96244.56;5057960;28;24431;-76
2021/11/07 07:14:00;;;;;;;8.13;7.38;;;;;;;1.49;100.00;96233.94;5052353;28;24940;-76
2021/11/07 07:16:36;;;;;;;11.73;8.13;;;;;;;1.69;100.00;96231.81;5051880;28;25010;-77
2021/11/07 07:19:13;;;;;;;7.63;6.93;;;;;;;1.96;100.00;96233.81;5054871;28;24442;-76
2021/11/07 07:21:49;;;;;;;7.50;6.70;;;;;;;1.77;100.00;96241.84;5055770;28;24442;-77
2021/11/07 07:27:15;;;;;;;8.48;7.22;;;;;;;1.94;100.00;96226.19;5039066;28;25026;-76
2021/11/07 07:30:07;;;;;;;8.55;6.75;;;;;;;1.95;100.00;96238.09;5055265;28;24415;-77
2021/11/07 07:35:27;;;;;;;8.80;7.05;;;;;;;1.97;100.00;96256.78;5042645;28;24553;-76
2021/11/07 07:37:54;;;;;;;7.88;7.13;;;;;;;1.95;100.00;96258.53;5052780;28;24438;-76
2021/11/07 07:40:21;;;;;;;10.00;7.72;;;;;;;1.91;100.00;96255.19;5051954;28;24796;-76
2021/11/07 07:42:48;;;;;;;9.68;8.02;;;;;;;1.87;100.00;96250.19;5051674;28;24423;-76
2021/11/07 07:45:15;;;;;;;8.23;7.43;;;;;;;1.89;100.00;96254.41;5051760;28;24440;-76
2021/11/07 07:47:44;;;;;;;8.13;7.32;;;;;;;2.00;100.00;96261.81;5051814;28;24433;-76
2021/11/07 07:50:12;;;;;;;9.77;7.75;;;;;;;2.16;100.00;96259.78;5051706;28;24431;-77
2021/11/07 07:52:40;;;;;;;8.43;7.55;;;;;;;2.13;100.00;96276.00;5052025;28;24521;-77
2021/11/07 07:55:08;;;;;;;10.93;9.90;;;;;;;2.02;100.00;96285.63;5051502;28;24527;-77
2021/11/07 08:00:22;;;;;;;17.67;12.75;;;;;;;1.98;100.00;96262.72;5049322;28;24443;-76
2021/11/07 08:02:51;;;;;;;12.25;11.02;;;;;;;2.02;100.00;96272.00;5059390;28;24481;-77
2021/11/07 08:05:23;;;;;;;12.15;9.43;;;;;;;2.08;100.00;96272.72;5059273;28;24443;-77
2021/11/07 08:07:50;;;;;;;8.65;7.70;;;;;;;2.14;100.00;96251.28;5052170;28;24475;-77
2021/11/07 08:10:17;;;;;;;9.30;7.93;;;;;;;2.12;100.00;96251.34;5051398;28;24430;-76
2021/11/07 08:12:43;;;;;;;14.43;11.82;;;;;;;2.15;100.00;96251.28;5051296;28;24477;-76
2021/11/07 08:15:12;;;;;;;10.70;9.43;;;;;;;2.18;100.00;96251.19;5051060;28;24537;-76
2021/11/07 08:17:39;;;;;;;10.82;9.82;;;;;;;2.23;100.00;96255.38;5051139;28;24773;-76
2021/11/07 08:20:10;;;;;;;10.75;8.70;;;;;;;2.24;100.00;96241.72;5051284;28;24879;-77
2021/11/07 08:22:40;;;;;;;7.78;6.72;;;;;;;2.30;100.00;96228.78;5051093;28;24439;-76
2021/11/07 08:25:16;;;;;;;7.15;6.25;;;;;;;2.35;100.00;96220.16;5051209;28;24454;-77
2021/11/07 08:30:29;;;;;;;10.25;6.72;;;;;;;2.43;100.00;96232.75;5051119;28;24431;-76
2021/11/07 08:35:45;;;;;;;7.20;5.53;;;;;;;2.65;100.00;96213.44;5051055;28;24833;-76
2021/11/07 08:38:18;;;;;;;5.17;4.53;;;;;;;2.76;100.00;96207.25;5050766;28;24987;-77
2021/11/07 08:40:47;;;;;;;4.10;3.70;;;;;;;2.86;100.00;96201.84;5050724;28;24423;-77
2021/11/07 08:54:23;;;;;;;5.22;3.90;;;;;;;2.90;100.00;96207.72;5050787;28;25037;-77
2021/11/07 09:00:14;;;;;;;4.27;3.17;;;;;;;4.03;100.00;96225.06;5050714;28;24856;-76
2021/11/07 09:00:18;;;;;;;4.25;2.92;;;;;;;4.46;100.00;96220.38;5050536;28;24422;-77
2021/11/07 09:03:01;;;;;;;3.40;2.90;;;;;;;4.38;100.00;96215.47;5051313;28;24431;-76
2021/11/07 09:05:32;;;;;;;4.03;2.72;;;;;;;4.45;100.00;96210.97;5050598;28;24442;-74
2021/11/07 09:08:12;;;;;;;5.22;2.95;;;;;;;4.49;100.00;96205.72;5050742;28;24976;-74
2021/11/07 09:10:39;;;;;;;4.55;3.17;;;;;;;4.47;100.00;96194.66;5050799;28;24431;-74
2021/11/07 09:13:09;;;;;;;5.63;3.40;;;;;;;4.46;100.00;96187.03;5050736;28;24793;-74
2021/11/07 09:15:38;;;;;;;3.90;3.40;;;;;;;4.57;99.13;96170.38;5050302;28;24506;-74
2021/11/07 09:18:05;;;;;;;3.23;2.53;;;;;;;4.64;96.56;96162.50;5050492;28;24781;-74
2021/11/07 09:20:39;;;;;;;3.63;2.85;;;;;;;4.68;97.81;96164.91;5050308;28;24434;-74
2021/11/07 09:23:10;;;;;;;2.97;2.55;;;;;;;4.78;98.24;96167.97;5050578;28;24439;-74
2021/11/07 09:25:40;;;;;;;3.10;2.30;;;;;;;4.82;96.09;96175.56;5050329;28;24450;-74
2021/11/07 09:28:09;;;;;;;3.58;2.03;;;;;;;4.93;95.48;96166.63;5050458;28;24642;-74
2021/11/07 09:30:43;;;;;;;1.92;1.73;;;;;;;5.22;94.01;96169.03;5050200;28;24427;-74
2021/11/07 09:33:13;;;;;;;3.38;2.20;;;;;;;5.29;94.49;96170.47;5050209;28;24493;-74
2021/11/07 09:35:48;;;;;;;3.42;2.28;;;;;;;5.53;92.68;96171.34;5050308;28;24431;-74
2021/11/07 09:38:20;;;;;;;3.13;1.83;;;;;;;5.53;91.30;96162.81;5051970;28;24489;-74
2021/11/07 09:40:58;;;;;;;2.35;1.90;;;;;;;5.64;90.89;96159.84;5051991;28;24956;-75
2021/11/07 09:43:39;;;;;;;2.80;1.35;;;;;;;6.00;88.03;96165.34;5052499;28;24526;-76
2021/11/07 09:46:13;;;;;;;2.15;1.95;;;;;;;5.98;89.84;96165.41;5056053;28;24451;-75
2021/11/07 09:48:42;;;;;;;3.00;1.95;;;;;;;6.17;87.83;96162.13;5055247;28;24522;-76
2021/11/07 09:51:16;;;;;;;2.08;1.65;;;;;;;6.08;89.40;96165.88;5055459;28;24431;-76
2021/11/07 09:53:45;;;;;;;2.22;1.50;;;;;;;6.11;89.89;96152.91;5055568;28;24528;-75
2021/11/07 09:56:11;;;;;;;2.05;1.50;;;;;;;6.12;89.87;96158.88;5053778;28;24479;-75
2021/11/07 09:58:41;;;;;;;1.60;1.50;;;;;;;6.12;89.07;96159.75;5055507;28;24438;-75
2021/11/07 10:01:08;;;;;;;1.45;1.27;;;;;;;6.15;91.22;96153.63;5055134;28;24480;-76
2021/11/07 10:03:39;;;;;;;2.10;1.50;;;;;;;6.22;91.11;96160.19;5055572;28;25030;-75
2021/11/07 10:06:28;;;;;;;3.20;1.30;;;;;;;6.30;91.08;96159.03;5054581;28;24474;-75
2021/11/07 10:08:56;;;;;;;1.95;1.10;;;;;;;6.43;88.54;96164.50;5054812;28;24521;-76
2021/11/07 10:11:29;;;;;;;2.60;1.00;;;;;;;6.43;89.62;96169.66;5054526;28;24449;-75
2021/11/07 10:14:03;;;;;;;1.63;1.00;;;;;;;6.45;89.52;96167.00;5054503;28;24439;-75
2021/11/07 10:16:45;;;;;;;7.53;3.83;;;;;;;6.57;86.84;96151.09;5054285;28;24415;-75
2021/11/07 10:19:29;;;;;;;6.85;3.95;;;;;;;6.64;85.92;96133.66;5054593;28;24423;-77
2021/11/07 10:21:57;;;;;;;2.10;1.25;;;;;;;6.76;86.00;96126.25;5053545;28;24422;-75
2021/11/07 10:24:30;;;;;;;1.67;1.15;;;;;;;6.80;85.26;96116.66;5053384;28;24428;-75
2021/11/07 10:27:00;;;;;;;1.75;1.00;;;;;;;6.71;87.74;96132.47;5053347;28;24454;-75
2021/11/07 10:29:30;;;;;;;2.55;1.55;;;;;;;6.71;89.56;96132.47;5052846;28;24434;-74
2021/11/07 10:32:02;;;;;;;1.52;1.13;;;;;;;6.69;90.26;96136.88;5053284;28;24936;-74
2021/11/07 10:37:33;;;;;;;1.25;1.15;;;;;;;6.88;88.15;96124.06;5049226;28;24439;-74
2021/11/07 10:40:21;;;;;;;1.60;1.02;;;;;;;6.89;87.89;96126.56;5052180;28;24872;-74
2021/11/07 10:43:12;;;;;;;2.22;1.30;;;;;;;6.90;88.86;96117.94;5053171;28;24473;-74
2021/11/07 10:46:11;;;;;;;1.65;1.20;;;;;;;7.03;88.92;96120.81;5052584;28;24443;-74
2021/11/07 10:54:24;;;;;;;1.42;0.90;;;;;;;7.17;87.79;96121.06;5010460;28;24423;-73
2021/11/07 10:57:17;;;;;;;1.60;0.90;;;;;;;7.21;88.47;96114.88;5034620;28;24440;-74
2021/11/07 11:00:05;;;;;;;1.55;0.95;;;;;;;7.25;89.03;96113.84;5052704;28;24975;-74
2021/11/07 11:02:36;;;;;;;2.80;0.80;;;;;;;7.26;89.86;96110.34;5052784;28;24948;-75
2021/11/07 11:05:05;;;;;;;1.50;0.80;;;;;;;7.31;88.37;96114.47;5052224;28;24477;-75
2021/11/07 11:07:32;;;;;;;1.23;0.82;;;;;;;7.28;87.81;96107.72;5052437;28;25000;-74
2021/11/07 11:10:15;;;;;;;3.45;0.93;;;;;;;7.32;87.16;96111.81;5052675;28;24426;-74
2021/11/07 11:13:11;;;;;;;1.35;0.70;;;;;;;7.22;87.47;96107.97;5052390;28;25034;-75
2021/11/07 11:15:48;;;;;;;1.52;1.10;;;;;;;7.31;88.83;96104.19;5054474;28;24431;-74
2021/11/07 11:18:31;;;;;;;2.40;1.17;;;;;;;7.43;87.72;96098.47;5054389;28;24423;-75
2021/11/07 11:21:19;;;;;;;1.35;0.70;;;;;;;7.72;87.32;96097.97;5054038;28;24431;-74
2021/11/07 11:23:57;;;;;;;2.15;1.20;;;;;;;8.00;86.32;96106.97;5055048;28;24440;-74
2021/11/07 11:26:40;;;;;;;1.33;1.02;;;;;;;8.19;85.73;96110.38;5055658;28;24440;-74
2021/11/07 11:29:23;;;;;;;1.70;0.80;;;;;;;8.15;84.50;96103.66;5055349;28;24522;-75
2021/11/07 11:31:55;;;;;;;7.55;0.80;;;;;;;8.30;83.80;96114.16;5056347;28;21134;-75
2021/11/07 11:34:26;;;;;;;1.10;0.80;;;;;;;8.15;84.41;96116.56;5056098;28;20675;-73
2021/11/07 11:36:57;;;;;;;2.17;1.00;;;;;;;8.13;84.82;96113.25;5056227;28;21242;-75
2021/11/07 11:39:29;;;;;;;2.03;1.10;;;;;;;8.12;85.90;96102.97;5053941;28;20697;-74
2021/11/07 11:42:00;;;;;;;1.15;0.77;;;;;;;8.05;86.79;96086.97;5053417;28;20663;-74
2021/11/07 11:44:30;;;;;;;1.30;0.88;;;;;;;8.12;86.34;96084.94;5054435;28;20762;-73
2021/11/07 11:47:14;;;;;;;3.28;1.10;;;;;;;8.18;85.57;96080.31;5053745;28;20779;-74
2021/11/07 11:50:03;;;;;;;1.33;0.80;;;;;;;8.30;85.81;96094.34;5053740;28;20655;-74
2021/11/07 11:52:37;;;;;;;1.45;0.93;;;;;;;8.37;86.13;96090.59;5054318;28;20739;-74
2021/11/07 11:55:21;;;;;;;1.30;0.90;;;;;;;8.38;86.17;96086.28;5053393;28;20785;-74
2021/11/07 11:58:10;;;;;;;2.13;1.00;;;;;;;8.41;85.20;96074.06;5053450;28;20679;-74
2021/11/07 12:00:46;;;;;;;2.13;1.00;;;;;;;8.29;87.37;96064.31;5054065;28;20714;-74
2021/11/07 12:03:32;;;;;;;1.73;0.90;;;;;;;8.29;86.63;96072.06;5053502;28;21297;-74
2021/11/07 12:06:02;;;;;;;1.60;0.80;;;;;;;8.19;88.54;96069.09;5052099;28;21324;-74
2021/11/07 12:08:39;;;;;;;1.77;0.93;;;;;;;8.24;88.58;96077.44;5052841;28;24522;-73
2021/11/07 12:11:22;;;;;;;6.32;3.25;;;;;;;8.30;87.92;96071.13;5053769;28;20693;-74
2021/11/07 12:13:53;;;;;;;2.40;1.07;;;;;;;8.28;88.28;96069.56;5053763;28;21393;-74
2021/11/07 12:16:47;;;;;;;3.50;1.90;;;;;;;8.23;89.19;96064.59;5053092;28;20707;-74
2021/11/07 12:19:16;;;;;;;4.07;2.50;;;;;;;8.27;89.37;96066.16;5053329;28;20894;-74
2021/11/07 12:22:01;;;;;;;2.15;1.60;;;;;;;8.39;88.29;96063.00;5053558;28;20751;-74
2021/11/07 12:24:32;;;;;;;3.30;2.10;;;;;;;8.26;88.50;96064.47;5053449;28;20758;-74
2021/11/07 12:27:22;;;;;;;3.70;2.70;;;;;;;8.20;90.83;96067.34;5053662;28;20743;-74